Terminal Aerodrome Forecast
Issued by NWS

Home | Current Version | Previous Version | Text Only | Print | Product List | Glossary On
Versions: 1 2 3 4 5 6 7 8 9 10 11 12 13
000
FTUS46 KMTR 211126
TAFSJC
TAF
KSJC 211126Z 2112/2212 13008KT P6SM -SHRA FEW030 BKN070 BKN100
     FM211500 19005KT P6SM -SHRA FEW040 BKN080
     FM211800 28010KT P6SM -SHRA FEW020 SCT040
     FM220300 27007KT P6SM -SHRA FEW030 BKN080
     FM220500 33005KT P6SM VCSH FEW030 BKN080
     FM221000 29003KT P6SM FEW030=

USA.gov is the U.S. government's official web portal to all federal, state and local government web resources and services.